createdAt,value
2022-08-05T00:01:29.064Z,9.43
2022-08-05T00:03:57.006Z,7.82
2022-08-05T00:06:27.910Z,9.18
2022-08-05T00:09:00.696Z,11.10
2022-08-05T00:11:34.668Z,11.68
2022-08-05T00:14:11.986Z,8.75
2022-08-05T00:16:52.421Z,8.10
2022-08-05T00:19:21.587Z,9.20
2022-08-05T00:21:49.607Z,14.02
2022-08-05T00:24:23.270Z,11.52
2022-08-05T00:26:53.124Z,8.85
2022-08-05T00:29:22.817Z,8.80
2022-08-05T00:32:12.180Z,10.45
2022-08-05T00:34:55.707Z,8.55
2022-08-05T00:37:35.887Z,8.80
2022-08-05T00:40:17.671Z,12.65
2022-08-05T00:42:49.168Z,10.73
2022-08-05T00:45:17.109Z,10.10
2022-08-05T00:47:56.424Z,10.68
2022-08-05T00:50:25.706Z,13.13
2022-08-05T00:52:55.296Z,11.75
2022-08-05T00:55:42.143Z,10.02
2022-08-05T00:58:13.981Z,11.23
2022-08-05T01:00:42.046Z,11.35
2022-08-05T01:03:12.628Z,10.18
2022-08-05T01:05:51.227Z,10.45
2022-08-05T01:08:40.804Z,10.27
2022-08-05T01:11:14.169Z,8.82
2022-08-05T01:14:01.410Z,9.68
2022-08-05T01:16:30.512Z,7.82
2022-08-05T01:19:07.333Z,8.98
2022-08-05T01:21:50.511Z,11.55
2022-08-05T01:24:35.949Z,8.30
2022-08-05T01:27:50.482Z,11.40
2022-08-05T01:30:34.707Z,11.70
2022-08-05T01:33:06.283Z,11.93
2022-08-05T01:35:51.111Z,14.52
2022-08-05T01:38:24.878Z,11.15
2022-08-05T01:40:58.901Z,10.50
2022-08-05T01:43:27.391Z,13.50
2022-08-05T01:45:56.619Z,10.13
2022-08-05T01:48:25.532Z,12.02
2022-08-05T01:50:55.703Z,11.60
2022-08-05T01:53:54.519Z,13.80
2022-08-05T01:56:11.826Z,14.70
2022-08-05T01:58:40.934Z,16.12
2022-08-05T02:01:13.902Z,13.73
2022-08-05T02:03:45.757Z,15.63
2022-08-05T02:06:37.095Z,12.35
2022-08-05T02:09:00.091Z,10.95
2022-08-05T02:11:52.677Z,10.63
2022-08-05T02:14:32.887Z,9.68
2022-08-05T02:17:16.824Z,12.45
2022-08-05T02:20:01.392Z,10.00
2022-08-05T02:22:35.062Z,11.18
2022-08-05T02:27:58.950Z,9.60
2022-08-05T02:30:34.598Z,8.43
2022-08-05T02:33:02.914Z,10.25
2022-08-05T02:35:33.051Z,8.70
2022-08-05T02:38:04.715Z,14.68
2022-08-05T02:40:31.955Z,8.38
2022-08-05T02:42:59.302Z,11.60
2022-08-05T02:45:27.146Z,9.82
2022-08-05T02:48:06.878Z,9.27
2022-08-05T02:50:44.066Z,9.57
2022-08-05T02:53:19.208Z,10.63
2022-08-05T02:55:54.066Z,11.38
2022-08-05T02:58:23.223Z,11.57
2022-08-05T03:00:56.041Z,11.93
2022-08-05T03:03:23.768Z,9.63
2022-08-05T03:06:56.562Z,9.65
2022-08-05T03:08:42.618Z,10.35
2022-08-05T03:11:54.823Z,13.30
2022-08-05T03:14:13.499Z,11.32
2022-08-05T03:16:40.913Z,11.30
2022-08-05T03:19:17.357Z,10.80
2022-08-05T03:21:55.171Z,8.15
2022-08-05T03:24:29.679Z,9.57
2022-08-05T03:26:59.290Z,9.77
2022-08-05T03:29:44.718Z,11.48
2022-08-05T03:32:14.462Z,9.25
2022-08-05T03:34:51.047Z,11.73
2022-08-05T03:40:01.670Z,11.63
2022-08-05T03:42:32.346Z,11.55
2022-08-05T03:45:01.824Z,10.63
2022-08-05T03:47:47.430Z,10.20
2022-08-05T03:50:16.291Z,10.35
2022-08-05T03:55:51.363Z,9.60
2022-08-05T03:56:05.325Z,10.15
2022-08-05T03:58:36.383Z,9.95
2022-08-05T04:01:05.352Z,12.25
2022-08-05T04:03:37.988Z,8.27
2022-08-05T04:06:08.682Z,9.68
2022-08-05T04:08:37.036Z,9.45
2022-08-05T04:11:08.462Z,11.25
2022-08-05T04:13:49.660Z,9.98
2022-08-05T04:16:24.349Z,10.60
2022-08-05T04:18:54.219Z,11.02
2022-08-05T04:22:08.789Z,10.10
2022-08-05T04:24:19.576Z,12.68
2022-08-05T04:26:49.906Z,11.63
2022-08-05T04:29:17.198Z,11.50
2022-08-05T04:31:44.091Z,10.95
2022-08-05T04:34:19.616Z,13.70
2022-08-05T04:36:59.095Z,10.35
2022-08-05T04:39:27.921Z,9.75
2022-08-05T04:41:55.430Z,17.45
2022-08-05T04:44:29.627Z,14.98
2022-08-05T04:47:08.806Z,11.02
2022-08-05T04:49:38.523Z,9.23
2022-08-05T04:52:24.380Z,7.45
2022-08-05T04:54:57.163Z,9.48
2022-08-05T04:57:28.729Z,9.35
2022-08-05T04:59:58.531Z,12.80
2022-08-05T05:02:41.306Z,8.10
2022-08-05T05:05:16.995Z,9.43
2022-08-05T05:08:01.594Z,12.37
2022-08-05T05:10:33.683Z,8.65
2022-08-05T05:13:04.147Z,8.65
2022-08-05T05:15:57.847Z,9.38
2022-08-05T05:18:28.362Z,14.38
2022-08-05T05:20:58.751Z,12.25
2022-08-05T05:23:25.762Z,12.25
2022-08-05T05:25:52.759Z,6.93
2022-08-05T05:28:19.676Z,8.15
2022-08-05T05:30:49.554Z,9.25
2022-08-05T05:33:17.551Z,9.10
2022-08-05T05:35:45.870Z,19.55
2022-08-05T05:38:14.268Z,41.67
2022-08-05T05:40:49.708Z,12.75
2022-08-05T05:43:27.497Z,8.70
2022-08-05T05:45:55.202Z,8.35
2022-08-05T05:48:27.329Z,8.27
2022-08-05T05:50:54.742Z,10.05
2022-08-05T05:53:22.767Z,9.18
2022-08-05T05:55:52.075Z,10.80
2022-08-05T05:58:32.068Z,10.73
2022-08-05T06:01:12.753Z,13.62
2022-08-05T06:04:00.903Z,12.23
2022-08-05T06:06:31.067Z,10.02
2022-08-05T06:09:00.521Z,9.00
2022-08-05T06:11:28.810Z,10.25
2022-08-05T06:13:56.427Z,11.25
2022-08-05T06:16:30.748Z,11.75
2022-08-05T06:19:01.887Z,8.25
2022-08-05T06:21:37.658Z,7.95
2022-08-05T06:24:11.434Z,8.40
2022-08-05T06:26:51.451Z,10.40
2022-08-05T06:29:25.126Z,10.23
2022-08-05T06:32:25.493Z,7.03
2022-08-05T06:34:57.195Z,11.30
2022-08-05T06:37:56.037Z,13.50
2022-08-05T06:40:14.080Z,16.12
2022-08-05T06:42:45.871Z,10.18
2022-08-05T06:45:20.808Z,15.07
2022-08-05T06:48:12.019Z,11.32
2022-08-05T06:50:35.576Z,11.20
2022-08-05T06:53:11.294Z,9.88
2022-08-05T06:55:41.968Z,10.73
2022-08-05T06:58:19.770Z,7.53
2022-08-05T07:01:00.795Z,14.18
2022-08-05T07:03:32.870Z,11.07
2022-08-05T07:06:05.955Z,12.93
2022-08-05T07:08:47.892Z,9.07
2022-08-05T07:11:22.269Z,8.68
2022-08-05T07:14:15.434Z,8.73
2022-08-05T07:17:56.464Z,11.15
2022-08-05T07:22:27.716Z,12.05
2022-08-05T07:24:57.604Z,8.85
2022-08-05T07:27:25.197Z,6.62
2022-08-05T07:30:22.802Z,9.25
2022-08-05T07:32:44.182Z,6.65
2022-08-05T07:36:02.437Z,8.20
2022-08-05T07:38:04.935Z,7.82
2022-08-05T07:40:33.303Z,8.93
2022-08-05T07:43:04.910Z,9.20
2022-08-05T07:45:57.526Z,5.22
2022-08-05T07:49:02.347Z,5.00
2022-08-05T07:51:23.334Z,5.30
2022-08-05T07:53:59.472Z,5.82
2022-08-05T07:56:59.952Z,5.12
2022-08-05T07:59:15.984Z,5.10
2022-08-05T08:01:52.121Z,3.95
2022-08-05T08:04:37.521Z,5.15
2022-08-05T08:07:07.331Z,4.90
2022-08-05T08:09:35.057Z,4.65
2022-08-05T08:12:11.455Z,5.03
2022-08-05T08:14:47.357Z,5.87
2022-08-05T08:17:16.230Z,7.03
2022-08-05T08:20:21.241Z,6.47
2022-08-05T08:22:34.594Z,5.32
2022-08-05T08:25:02.856Z,8.50
2022-08-05T08:27:40.088Z,3.85
2022-08-05T08:30:29.879Z,7.18
2022-08-05T08:33:02.508Z,5.85
2022-08-05T08:35:35.002Z,5.37
2022-08-05T08:38:08.115Z,6.55
2022-08-05T08:40:35.978Z,4.70
2022-08-05T08:43:21.296Z,5.03
2022-08-05T08:45:53.462Z,4.00
2022-08-05T08:48:22.597Z,5.78
2022-08-05T08:51:54.561Z,7.72
2022-08-05T08:53:55.302Z,5.50
2022-08-05T08:56:27.117Z,5.60
2022-08-05T08:58:54.365Z,3.42
2022-08-05T09:01:21.592Z,4.35
2022-08-05T09:03:58.291Z,5.78
2022-08-05T09:06:29.672Z,4.05
2022-08-05T09:08:59.724Z,5.90
2022-08-05T09:11:51.524Z,3.97
2022-08-05T09:14:56.298Z,4.97
2022-08-05T09:17:02.537Z,6.45
2022-08-05T09:19:36.837Z,4.45
2022-08-05T09:22:30.869Z,6.90
2022-08-05T09:25:24.035Z,6.50
2022-08-05T09:28:05.293Z,5.05
2022-08-05T09:30:34.658Z,6.75
2022-08-05T09:33:02.463Z,6.50
2022-08-05T09:35:31.680Z,5.60
2022-08-05T09:38:16.853Z,5.43
2022-08-05T09:40:53.892Z,12.10
2022-08-05T09:43:40.804Z,4.28
2022-08-05T09:46:28.433Z,4.82
2022-08-05T09:49:07.637Z,4.53
2022-08-05T09:51:49.519Z,5.97
2022-08-05T09:54:21.375Z,6.30
2022-08-05T09:56:57.652Z,4.28
2022-08-05T09:59:28.375Z,5.07
2022-08-05T10:01:57.703Z,5.57
2022-08-05T10:04:36.033Z,4.57
2022-08-05T10:07:19.505Z,3.62
2022-08-05T10:10:14.640Z,3.58
2022-08-05T10:12:52.346Z,5.50
2022-08-05T10:15:23.002Z,3.97
2022-08-05T10:18:23.076Z,4.93
2022-08-05T10:21:08.343Z,4.15
2022-08-05T10:23:59.634Z,4.97
2022-08-05T10:26:32.750Z,5.37
2022-08-05T10:29:00.902Z,5.47
2022-08-05T10:32:53.045Z,4.22
2022-08-05T10:34:14.871Z,5.15
2022-08-05T10:36:44.295Z,5.70
2022-08-05T10:39:59.005Z,8.15
2022-08-05T10:42:32.587Z,5.20
2022-08-05T10:45:02.293Z,7.65
2022-08-05T10:48:29.717Z,6.80
2022-08-05T10:51:21.686Z,4.85
2022-08-05T10:53:58.508Z,5.87
2022-08-05T10:56:30.322Z,5.07
2022-08-05T10:59:11.483Z,7.60
2022-08-05T11:01:54.689Z,6.25
2022-08-05T11:04:30.967Z,5.95
2022-08-05T11:07:00.631Z,5.00
2022-08-05T11:09:45.605Z,6.90
2022-08-05T11:12:41.389Z,5.55
2022-08-05T11:15:20.331Z,6.68
2022-08-05T11:17:57.401Z,5.75
2022-08-05T11:20:46.200Z,4.78
2022-08-05T11:24:03.913Z,5.73
2022-08-05T11:26:32.167Z,5.20
2022-08-05T11:29:11.957Z,6.80
2022-08-05T11:31:58.661Z,5.18
2022-08-05T11:34:51.998Z,7.80
2022-08-05T11:38:37.400Z,9.27
2022-08-05T11:41:12.843Z,7.25
2022-08-05T11:44:06.328Z,5.12
2022-08-05T11:47:09.537Z,6.37
2022-08-05T11:49:34.529Z,4.87
2022-08-05T11:52:11.555Z,5.55
2022-08-05T11:54:41.277Z,8.52
2022-08-05T11:57:24.785Z,4.93
2022-08-05T11:59:53.260Z,5.45
2022-08-05T12:02:31.367Z,5.15
2022-08-05T12:05:07.219Z,7.25
2022-08-05T12:08:08.962Z,5.18
2022-08-05T12:10:43.416Z,4.37
2022-08-05T12:13:17.078Z,6.05
2022-08-05T12:15:49.709Z,6.15
2022-08-05T12:18:20.572Z,6.62
2022-08-05T12:20:51.252Z,8.60
2022-08-05T12:23:18.303Z,4.37
2022-08-05T12:25:53.795Z,3.92
2022-08-05T12:28:37.127Z,7.43
2022-08-05T12:31:05.359Z,5.50
2022-08-05T12:33:36.492Z,5.35
2022-08-05T12:36:09.494Z,5.45
2022-08-05T12:38:39.620Z,10.43
2022-08-05T12:41:13.786Z,3.45
2022-08-05T12:43:58.798Z,4.18
2022-08-05T12:46:31.413Z,4.50
2022-08-05T12:49:15.355Z,3.50
2022-08-05T12:52:12.389Z,8.45
2022-08-05T12:54:46.865Z,5.18
2022-08-05T12:57:17.101Z,5.03
2022-08-05T13:01:58.387Z,5.07
2022-08-05T13:02:43.269Z,6.70
2022-08-05T13:05:14.908Z,8.68
2022-08-05T13:08:00.660Z,5.85
2022-08-05T13:10:28.642Z,4.72
2022-08-05T13:12:58.072Z,4.12
2022-08-05T13:15:41.428Z,5.95
2022-08-05T13:18:18.894Z,4.15
2022-08-05T13:20:49.181Z,4.22
2022-08-05T13:23:18.270Z,3.50
2022-08-05T13:25:52.764Z,5.03
2022-08-05T13:28:27.497Z,6.05
2022-08-05T13:30:54.445Z,4.25
2022-08-05T13:34:22.502Z,4.70
2022-08-05T13:36:09.659Z,5.20
2022-08-05T13:38:38.508Z,5.35
2022-08-05T13:41:10.779Z,4.00
2022-08-05T13:43:44.021Z,4.65
2022-08-05T13:46:50.839Z,4.65
2022-08-05T13:49:10.206Z,7.25
2022-08-05T13:51:40.848Z,4.78
2022-08-05T13:54:12.352Z,5.07
2022-08-05T13:56:45.558Z,3.97
2022-08-05T13:59:20.436Z,7.37
2022-08-05T14:01:58.166Z,5.72
2022-08-05T14:04:51.638Z,5.20
2022-08-05T14:07:59.498Z,5.65
2022-08-05T14:10:28.373Z,4.40
2022-08-05T14:12:57.210Z,5.00
2022-08-05T14:16:07.236Z,3.78
2022-08-05T14:18:15.125Z,3.83
2022-08-05T14:20:48.028Z,4.55
2022-08-05T14:23:23.931Z,5.37
2022-08-05T14:25:58.262Z,5.15
2022-08-05T14:28:30.189Z,5.28
2022-08-05T14:30:58.238Z,2.60
2022-08-05T14:33:25.618Z,6.35
2022-08-05T14:35:54.422Z,6.20
2022-08-05T14:38:32.506Z,3.80
2022-08-05T14:41:06.393Z,5.50
2022-08-05T14:43:57.646Z,5.07
2022-08-05T14:46:28.357Z,4.28
2022-08-05T14:48:57.997Z,7.18
2022-08-05T14:51:30.877Z,3.78
2022-08-05T14:54:26.748Z,4.55
2022-08-05T14:56:46.753Z,3.67
2022-08-05T14:59:14.694Z,5.00
2022-08-05T15:01:48.987Z,6.12
2022-08-05T15:04:20.465Z,4.75
2022-08-05T15:06:49.145Z,4.87
2022-08-05T15:09:52.849Z,3.67
2022-08-05T15:12:08.978Z,3.92
2022-08-05T15:14:42.195Z,7.62
2022-08-05T15:17:45.737Z,4.30
2022-08-05T15:20:04.286Z,7.43
2022-08-05T15:22:31.216Z,6.90
2022-08-05T15:24:59.372Z,3.60
2022-08-05T15:27:26.691Z,4.20
2022-08-05T15:30:04.029Z,7.45
2022-08-05T15:32:30.980Z,5.78
2022-08-05T15:34:58.774Z,5.85
2022-08-05T15:38:31.899Z,6.68
2022-08-05T15:41:00.732Z,8.75
2022-08-05T15:43:12.592Z,4.10
2022-08-05T15:45:46.929Z,5.18
2022-08-05T15:48:15.149Z,6.30
2022-08-05T15:50:43.572Z,5.35
2022-08-05T15:53:12.954Z,4.87
2022-08-05T15:56:02.183Z,4.50
2022-08-05T15:58:35.789Z,6.10
2022-08-05T16:01:16.274Z,5.03
2022-08-05T16:03:48.134Z,4.93
2022-08-05T16:06:20.262Z,6.15
2022-08-05T16:08:51.300Z,4.60
2022-08-05T16:11:42.521Z,6.20
2022-08-05T16:14:09.265Z,5.80
2022-08-05T16:16:36.468Z,4.93
2022-08-05T16:19:04.241Z,3.90
2022-08-05T16:21:58.449Z,8.23
2022-08-05T16:24:41.131Z,5.80
2022-08-05T16:27:05.339Z,5.57
2022-08-05T16:29:37.355Z,5.47
2022-08-05T16:32:06.692Z,6.22
2022-08-05T16:34:41.805Z,3.97
2022-08-05T16:38:15.172Z,5.05
2022-08-05T16:40:05.086Z,6.78
2022-08-05T16:42:34.556Z,6.47
2022-08-05T16:45:02.047Z,5.15
2022-08-05T16:47:53.397Z,7.05
2022-08-05T16:50:22.661Z,4.95
2022-08-05T16:52:49.593Z,6.07
2022-08-05T16:55:16.765Z,3.58
2022-08-05T16:58:00.120Z,4.68
2022-08-05T17:00:34.847Z,3.85
2022-08-05T17:03:09.326Z,5.80
2022-08-05T17:05:51.773Z,6.03
2022-08-05T17:08:36.763Z,5.12
2022-08-05T17:11:08.808Z,5.47
2022-08-05T17:13:41.477Z,4.70
2022-08-05T17:16:28.000Z,4.87
2022-08-05T17:18:56.408Z,5.35
2022-08-05T17:21:23.793Z,5.90
2022-08-05T17:24:05.653Z,8.50
2022-08-05T17:26:39.240Z,5.65
2022-08-05T17:29:09.834Z,5.35
2022-08-05T17:31:41.497Z,7.22
2022-08-05T17:34:30.252Z,5.97
2022-08-05T17:37:00.457Z,3.97
2022-08-05T17:39:33.938Z,4.75
2022-08-05T17:42:19.842Z,7.05
2022-08-05T17:44:50.283Z,4.90
2022-08-05T17:47:22.454Z,6.80
2022-08-05T17:49:59.984Z,7.00
2022-08-05T17:52:32.175Z,6.15
2022-08-05T17:54:59.512Z,5.00
2022-08-05T17:57:27.663Z,7.72
2022-08-05T18:00:03.761Z,4.78
2022-08-05T18:02:35.932Z,9.82
2022-08-05T18:05:06.998Z,8.27
2022-08-05T18:07:41.963Z,22.50
2022-08-05T18:10:11.522Z,20.45
2022-08-05T18:12:41.142Z,13.00
2022-08-05T18:15:08.989Z,11.48
2022-08-05T18:17:58.889Z,7.47
2022-08-05T18:20:29.609Z,9.02
2022-08-05T18:23:00.663Z,6.95
2022-08-05T18:25:39.058Z,10.68
2022-08-05T18:28:07.006Z,5.10
2022-08-05T18:30:39.101Z,8.23
2022-08-05T18:33:07.591Z,10.30
2022-08-05T18:35:59.899Z,5.70
2022-08-05T18:38:26.217Z,7.00
2022-08-05T18:41:53.616Z,6.15
2022-08-05T18:43:42.753Z,5.68
2022-08-05T18:46:10.329Z,6.95
2022-08-05T18:48:41.578Z,9.35
2022-08-05T18:52:03.975Z,8.82
2022-08-05T18:54:15.167Z,14.77
2022-08-05T18:56:51.311Z,15.52
2022-08-05T18:59:44.060Z,12.68
2022-08-05T19:02:18.456Z,14.52
2022-08-05T19:05:01.639Z,12.52
2022-08-05T19:07:46.372Z,18.85
2022-08-05T19:10:14.950Z,21.08
2022-08-05T19:12:43.179Z,16.58
2022-08-05T19:15:54.703Z,12.70
2022-08-05T19:18:08.084Z,15.20
2022-08-05T19:20:37.269Z,11.15
2022-08-05T19:23:08.834Z,14.02
2022-08-05T19:26:01.074Z,12.37
2022-08-05T19:28:29.538Z,16.20
2022-08-05T19:30:56.926Z,12.88
2022-08-05T19:33:35.887Z,12.82
2022-08-05T19:36:06.152Z,13.95
2022-08-05T19:38:35.604Z,14.32
2022-08-05T19:41:06.853Z,12.75
2022-08-05T19:44:06.192Z,13.18
2022-08-05T19:46:30.038Z,15.77
2022-08-05T19:49:04.015Z,12.13
2022-08-05T19:51:37.909Z,20.05
2022-08-05T19:54:29.395Z,16.42
2022-08-05T19:56:59.417Z,11.68
2022-08-05T19:59:59.391Z,11.23
2022-08-05T20:02:15.095Z,8.45
2022-08-05T20:04:45.832Z,11.57
2022-08-05T20:07:14.045Z,7.68
2022-08-05T20:09:54.143Z,11.90
2022-08-05T20:12:23.403Z,11.48
2022-08-05T20:14:52.220Z,7.95
2022-08-05T20:17:19.956Z,13.30
2022-08-05T20:19:51.009Z,9.70
2022-08-05T20:22:24.361Z,8.57
2022-08-05T20:24:53.977Z,10.00
2022-08-05T20:27:26.479Z,9.40
2022-08-05T20:29:58.396Z,10.48
2022-08-05T20:32:27.564Z,12.10
2022-08-05T20:34:55.009Z,10.40
2022-08-05T20:38:04.835Z,17.92
2022-08-05T20:40:10.132Z,8.98
2022-08-05T20:42:37.204Z,12.30
2022-08-05T20:45:05.501Z,10.82
2022-08-05T20:47:33.394Z,15.20
2022-08-05T20:50:02.279Z,13.65
2022-08-05T20:52:29.800Z,10.75
2022-08-05T20:55:15.728Z,11.35
2022-08-05T20:57:44.974Z,9.23
2022-08-05T21:00:40.789Z,8.57
2022-08-05T21:03:06.145Z,13.57
2022-08-05T21:05:47.556Z,12.63
2022-08-05T21:08:26.690Z,13.80
2022-08-05T21:11:00.500Z,10.52
2022-08-05T21:13:55.841Z,14.10
2022-08-05T21:16:19.412Z,9.43
2022-08-05T21:18:46.372Z,8.73
2022-08-05T21:21:14.664Z,9.38
2022-08-05T21:23:42.671Z,15.73
2022-08-05T21:26:14.244Z,14.45
2022-08-05T21:28:47.934Z,10.00
2022-08-05T21:31:17.632Z,11.10
2022-08-05T21:33:47.697Z,13.95
2022-08-05T21:36:27.679Z,8.20
2022-08-05T21:38:57.128Z,9.02
2022-08-05T21:41:26.167Z,12.37
2022-08-05T21:44:03.522Z,12.43
2022-08-05T21:46:34.568Z,6.62
2022-08-05T21:49:04.649Z,9.63
2022-08-05T21:52:22.826Z,5.95
2022-08-05T21:54:27.805Z,9.32
2022-08-05T21:57:29.181Z,9.07
2022-08-05T22:00:02.035Z,9.70
2022-08-05T22:02:31.089Z,6.60
2022-08-05T22:04:58.816Z,9.43
2022-08-05T22:07:40.144Z,8.00
2022-08-05T22:10:14.804Z,8.35
2022-08-05T22:12:44.932Z,7.55
2022-08-05T22:15:56.465Z,5.30
2022-08-05T22:18:06.279Z,6.93
2022-08-05T22:20:35.725Z,8.68
2022-08-05T22:23:24.734Z,6.40
2022-08-05T22:26:30.102Z,6.18
2022-08-05T22:28:57.051Z,10.55
2022-08-05T22:31:30.106Z,8.15
2022-08-05T22:34:01.583Z,5.82
2022-08-05T22:36:29.475Z,7.85
2022-08-05T22:38:57.002Z,8.70
2022-08-05T22:42:11.592Z,11.93
2022-08-05T22:44:19.121Z,7.05
2022-08-05T22:46:46.280Z,6.15
2022-08-05T22:50:18.410Z,8.02
2022-08-05T22:52:04.424Z,6.22
2022-08-05T22:54:35.811Z,5.78
2022-08-05T22:57:04.438Z,6.00
2022-08-05T22:59:43.663Z,7.28
2022-08-05T23:02:16.576Z,7.78
2022-08-05T23:04:58.090Z,10.55
2022-08-05T23:07:30.367Z,6.32
2022-08-05T23:10:01.578Z,4.60
2022-08-05T23:12:32.825Z,8.07
2022-08-05T23:15:08.930Z,6.12
2022-08-05T23:17:59.827Z,6.93
2022-08-05T23:20:24.370Z,6.50
2022-08-05T23:22:55.689Z,7.43
2022-08-05T23:25:53.523Z,6.87
2022-08-05T23:28:11.285Z,8.20
2022-08-05T23:30:40.007Z,9.07
2022-08-05T23:33:21.851Z,6.20
2022-08-05T23:35:56.136Z,6.90
2022-08-05T23:38:24.504Z,8.05
2022-08-05T23:40:52.797Z,7.22
2022-08-05T23:43:24.797Z,10.82
2022-08-05T23:46:03.634Z,7.32
2022-08-05T23:48:30.557Z,6.62
2022-08-05T23:50:58.580Z,9.00
2022-08-05T23:53:28.375Z,7.35
2022-08-05T23:55:55.686Z,9.13
2022-08-05T23:58:31.758Z,6.72
